Time;durP1;ratioP1;P1;durP2;ratioP2;P2;SDS_P1;SDS_P2;PMS_P1;PMS_P2;Temp;Humidity;BMP_temperature;BMP_pressure;BME280_temperature;BME280_humidity;BME280_pressure;Samples;Min_cycle;Max_cycle;Signal;HPM_P1;HPM_P2
2023/02/17 02:23:24;;;;;;;1999.90;999.90;;;;;;;;;;5232422;23;20271;-69
2023/02/17 02:26:24;;;;;;;1999.90;999.90;;;;;;;;;;4989298;28;20206;-65
2023/02/17 02:29:18;;;;;;;1999.90;999.90;;;;;;;;;;4993321;28;20308;-67
2023/02/17 02:32:09;;;;;;;1999.90;999.90;;;;;;;;;;4997054;28;20243;-70
2023/02/17 02:34:58;;;;;;;1999.90;999.90;;;;;;;;;;4973522;28;20295;-69
2023/02/17 02:37:44;;;;;;;1999.90;999.90;;;;;;;;;;4974124;28;20215;-70
2023/02/17 02:40:32;;;;;;;1999.90;999.90;;;;;;;;;;4978649;28;20547;-66
2023/02/17 02:43:17;;;;;;;1999.90;999.90;;;;;;;;;;4985910;28;20227;-67
2023/02/17 02:46:02;;;;;;;1999.90;999.90;;;;;;;;;;4987293;28;20216;-68
2023/02/17 02:48:48;;;;;;;1999.90;999.90;;;;;;;;;;4984909;28;20274;-68
2023/02/17 02:51:42;;;;;;;1999.90;999.90;;;;;;;;;;4991718;28;20281;-70
2023/02/17 02:54:31;;;;;;;1999.90;999.90;;;;;;;;;;4981662;28;20200;-67
2023/02/17 02:57:24;;;;;;;1999.90;999.90;;;;;;;;;;4983228;28;20211;-67
2023/02/17 03:00:12;;;;;;;1999.90;999.90;;;;;;;;;;4989267;28;20211;-68
2023/02/17 03:02:58;;;;;;;1999.90;999.90;;;;;;;;;;4982127;28;20228;-69
2023/02/17 03:05:48;;;;;;;1999.90;999.90;;;;;;;;;;4989764;28;20426;-70
2023/02/17 03:08:37;;;;;;;1999.90;999.90;;;;;;;;;;5011976;28;20710;-70
2023/02/17 03:11:31;;;;;;;1999.90;999.90;;;;;;;;;;5012470;28;20583;-68
2023/02/17 03:14:17;;;;;;;1999.90;999.90;;;;;;;;;;5012030;28;20207;-69
2023/02/17 03:17:02;;;;;;;1999.90;999.90;;;;;;;;;;5012347;28;20254;-69
2023/02/17 03:19:47;;;;;;;1999.90;999.90;;;;;;;;;;5012665;28;20215;-70
2023/02/17 03:22:35;;;;;;;1999.90;999.90;;;;;;;;;;5012086;28;20229;-70
2023/02/17 03:25:21;;;;;;;1999.90;999.90;;;;;;;;;;5011999;28;20210;-70
2023/02/17 03:28:06;;;;;;;1999.90;999.90;;;;;;;;;;5011908;28;20205;-70
2023/02/17 03:30:50;;;;;;;1999.90;999.90;;;;;;;;;;4994592;28;20236;-69
2023/02/17 03:33:35;;;;;;;1999.90;999.90;;;;;;;;;;4999778;28;20211;-68
2023/02/17 03:36:20;;;;;;;1999.90;999.90;;;;;;;;;;4974201;28;20231;-69
2023/02/17 03:39:06;;;;;;;1999.90;999.90;;;;;;;;;;4973087;28;20287;-67
2023/02/17 03:41:52;;;;;;;1999.90;999.90;;;;;;;;;;4986551;28;20255;-70
2023/02/17 03:44:37;;;;;;;1999.90;999.90;;;;;;;;;;4991949;28;20227;-70
2023/02/17 03:47:22;;;;;;;1999.90;999.90;;;;;;;;;;4991346;28;20220;-69
2023/02/17 03:50:07;;;;;;;1999.90;999.90;;;;;;;;;;4985358;28;20219;-70
2023/02/17 03:52:52;;;;;;;1999.90;999.90;;;;;;;;;;4985897;28;20271;-70
2023/02/17 03:55:38;;;;;;;1999.90;999.90;;;;;;;;;;4980232;28;20605;-68
2023/02/17 03:58:24;;;;;;;1999.90;999.90;;;;;;;;;;4994358;28;20208;-67
2023/02/17 04:01:10;;;;;;;1999.90;999.90;;;;;;;;;;4995740;28;20691;-68
2023/02/17 04:03:55;;;;;;;1999.90;999.90;;;;;;;;;;4998146;28;20649;-70
2023/02/17 04:06:40;;;;;;;1999.90;999.90;;;;;;;;;;4992424;28;20274;-70
2023/02/17 04:09:25;;;;;;;1999.90;999.90;;;;;;;;;;4976554;28;20792;-69
2023/02/17 04:12:10;;;;;;;1999.90;999.90;;;;;;;;;;4976313;28;20301;-70
2023/02/17 04:14:56;;;;;;;1999.90;999.90;;;;;;;;;;4976290;28;20698;-70
2023/02/17 04:17:41;;;;;;;1999.90;999.90;;;;;;;;;;4976539;28;20589;-70
2023/02/17 04:20:26;;;;;;;1999.90;999.90;;;;;;;;;;4976423;28;20228;-70
2023/02/17 04:23:13;;;;;;;1999.90;999.90;;;;;;;;;;4976095;28;20236;-70
2023/02/17 04:25:58;;;;;;;1999.90;999.90;;;;;;;;;;4975497;28;20415;-70
2023/02/17 04:28:43;;;;;;;1999.90;999.90;;;;;;;;;;4976367;28;20205;-70
2023/02/17 04:31:30;;;;;;;1999.90;999.90;;;;;;;;;;4980444;28;20640;-70
2023/02/17 04:34:15;;;;;;;1999.90;999.90;;;;;;;;;;4999984;28;20286;-70
2023/02/17 04:37:00;;;;;;;1999.90;999.90;;;;;;;;;;5015132;28;20208;-70
2023/02/17 04:39:45;;;;;;;1999.90;999.90;;;;;;;;;;4996508;28;20230;-69
2023/02/17 04:42:30;;;;;;;1999.90;999.90;;;;;;;;;;4996176;28;20227;-70
2023/02/17 04:45:15;;;;;;;1999.90;999.90;;;;;;;;;;5000380;28;20204;-68
2023/02/17 04:48:01;;;;;;;1999.90;999.90;;;;;;;;;;5001221;28;20215;-71
2023/02/17 04:50:46;;;;;;;1999.90;999.90;;;;;;;;;;4993384;28;20245;-70
2023/02/17 04:53:31;;;;;;;1999.90;999.90;;;;;;;;;;5003588;28;20499;-70
2023/02/17 04:56:15;;;;;;;1999.90;999.90;;;;;;;;;;5014653;28;20491;-69
2023/02/17 04:59:00;;;;;;;1999.90;999.90;;;;;;;;;;5008346;28;20227;-69
2023/02/17 05:01:45;;;;;;;1999.90;999.90;;;;;;;;;;4989107;28;20716;-70
2023/02/17 05:04:31;;;;;;;1999.90;999.90;;;;;;;;;;4994686;28;20229;-68
2023/02/17 05:07:16;;;;;;;1999.90;999.90;;;;;;;;;;4992997;28;20220;-67
2023/02/17 05:10:02;;;;;;;1999.90;999.90;;;;;;;;;;4988895;28;20203;-66
2023/02/17 05:12:47;;;;;;;1999.90;999.90;;;;;;;;;;4993898;28;20228;-67
2023/02/17 05:15:32;;;;;;;1999.90;999.90;;;;;;;;;;4995044;28;20215;-68
2023/02/17 05:18:17;;;;;;;1999.90;999.90;;;;;;;;;;4999151;28;20210;-67
2023/02/17 05:21:03;;;;;;;1999.90;999.90;;;;;;;;;;5003579;28;20223;-67
2023/02/17 05:23:49;;;;;;;1999.90;999.90;;;;;;;;;;4987825;28;20240;-67
2023/02/17 05:26:34;;;;;;;1999.90;999.90;;;;;;;;;;5005064;28;20287;-67
2023/02/17 05:29:19;;;;;;;1999.90;999.90;;;;;;;;;;4999483;28;20207;-67
2023/02/17 05:32:04;;;;;;;1999.90;999.90;;;;;;;;;;4989641;28;20283;-67
2023/02/17 05:34:49;;;;;;;1999.90;999.90;;;;;;;;;;4986997;28;20212;-69
2023/02/17 05:37:35;;;;;;;1999.90;999.90;;;;;;;;;;4994315;28;20223;-68
2023/02/17 05:40:20;;;;;;;1999.90;999.90;;;;;;;;;;4994184;28;20324;-69
2023/02/17 05:43:05;;;;;;;1999.90;999.90;;;;;;;;;;4992608;28;20286;-69
2023/02/17 05:45:50;;;;;;;1999.90;999.90;;;;;;;;;;4994864;28;20215;-69
2023/02/17 05:48:35;;;;;;;1999.90;999.90;;;;;;;;;;4995518;28;20711;-69
2023/02/17 05:51:20;;;;;;;1999.90;999.90;;;;;;;;;;4988502;28;20212;-69
2023/02/17 05:54:06;;;;;;;1999.90;999.90;;;;;;;;;;4998578;28;20703;-69
2023/02/17 05:56:51;;;;;;;1999.90;999.90;;;;;;;;;;4998857;28;20705;-68
2023/02/17 05:59:36;;;;;;;1999.90;999.90;;;;;;;;;;5002842;28;20742;-69
2023/02/17 06:02:21;;;;;;;1999.90;999.90;;;;;;;;;;4989375;28;20255;-67
2023/02/17 06:05:06;;;;;;;1999.90;999.90;;;;;;;;;;4996166;28;20814;-69
2023/02/17 06:07:51;;;;;;;1999.90;999.90;;;;;;;;;;4982483;28;20207;-69
2023/02/17 06:10:37;;;;;;;1999.90;999.90;;;;;;;;;;5001333;28;20705;-69
2023/02/17 06:13:22;;;;;;;1999.90;999.90;;;;;;;;;;4996942;28;20230;-69
2023/02/17 06:16:07;;;;;;;1999.90;999.90;;;;;;;;;;5007933;28;20206;-69
2023/02/17 06:18:52;;;;;;;1999.90;999.90;;;;;;;;;;5004892;28;20211;-69
2023/02/17 06:21:37;;;;;;;1999.90;999.90;;;;;;;;;;5003849;28;20236;-69
2023/02/17 06:24:22;;;;;;;1999.90;999.90;;;;;;;;;;5000837;28;20223;-69
2023/02/17 06:27:08;;;;;;;1999.90;999.90;;;;;;;;;;5009145;28;20223;-70
2023/02/17 06:29:53;;;;;;;1999.90;999.90;;;;;;;;;;4994339;28;20231;-68
2023/02/17 06:32:38;;;;;;;1999.90;999.90;;;;;;;;;;4989301;28;20231;-69
2023/02/17 06:35:23;;;;;;;1999.90;999.90;;;;;;;;;;5004461;28;20576;-69
2023/02/17 06:38:08;;;;;;;1999.90;999.90;;;;;;;;;;5004383;28;20435;-69
2023/02/17 06:40:53;;;;;;;1999.90;999.90;;;;;;;;;;4998181;28;20582;-69
2023/02/17 06:43:39;;;;;;;1999.90;999.90;;;;;;;;;;4995498;28;20310;-70
2023/02/17 06:46:24;;;;;;;1999.90;999.90;;;;;;;;;;5008235;28;20222;-68
2023/02/17 06:49:09;;;;;;;1999.90;999.90;;;;;;;;;;5001162;28;20207;-69
2023/02/17 06:51:54;;;;;;;1999.90;999.90;;;;;;;;;;4976393;28;20227;-69
2023/02/17 06:54:39;;;;;;;1999.90;999.90;;;;;;;;;;4987691;28;20696;-68
2023/02/17 06:57:24;;;;;;;1999.90;999.90;;;;;;;;;;5001069;28;20294;-70
2023/02/17 07:00:10;;;;;;;1999.90;999.90;;;;;;;;;;5001720;28;20580;-69
2023/02/17 07:02:55;;;;;;;1999.90;999.90;;;;;;;;;;4992886;28;20723;-69
2023/02/17 07:05:40;;;;;;;1999.90;999.90;;;;;;;;;;4992322;28;20428;-69
2023/02/17 07:08:25;;;;;;;1999.90;999.90;;;;;;;;;;4992804;28;20347;-68
2023/02/17 07:11:11;;;;;;;1999.90;999.90;;;;;;;;;;4992841;28;20266;-69
2023/02/17 07:13:57;;;;;;;1999.90;999.90;;;;;;;;;;4991204;28;20211;-68
2023/02/17 07:16:43;;;;;;;1999.90;999.90;;;;;;;;;;5001857;28;20286;-69
2023/02/17 07:19:28;;;;;;;1999.90;999.90;;;;;;;;;;4995332;28;20692;-70
2023/02/17 07:22:13;;;;;;;1999.90;999.90;;;;;;;;;;4992610;28;20380;-69
2023/02/17 07:24:58;;;;;;;1999.90;999.90;;;;;;;;;;4991415;28;20219;-67
2023/02/17 07:27:43;;;;;;;1999.90;999.90;;;;;;;;;;4989491;28;20696;-65
2023/02/17 07:30:28;;;;;;;1999.90;999.90;;;;;;;;;;5000620;28;20293;-68
2023/02/17 07:33:14;;;;;;;1999.90;999.90;;;;;;;;;;4988563;28;20231;-68
2023/02/17 07:35:59;;;;;;;1999.90;999.90;;;;;;;;;;4992152;28;20200;-70
2023/02/17 07:38:45;;;;;;;1999.90;999.90;;;;;;;;;;4992244;28;20214;-70
2023/02/17 07:41:32;;;;;;;1999.90;999.90;;;;;;;;;;4992262;28;20944;-68
2023/02/17 07:44:17;;;;;;;1999.90;999.90;;;;;;;;;;4983401;28;20244;-68
2023/02/17 07:47:02;;;;;;;1999.90;999.90;;;;;;;;;;4973023;28;20298;-69
2023/02/17 07:49:48;;;;;;;1999.90;999.90;;;;;;;;;;4972714;28;20201;-69
2023/02/17 07:52:33;;;;;;;1999.90;999.90;;;;;;;;;;4972742;28;20764;-69
2023/02/17 07:55:18;;;;;;;1999.90;999.90;;;;;;;;;;4981528;28;20307;-70
2023/02/17 07:58:03;;;;;;;1999.90;999.90;;;;;;;;;;4996361;28;25134;-70
2023/02/17 08:00:48;;;;;;;1999.90;999.90;;;;;;;;;;5006107;28;20194;-70
2023/02/17 08:03:33;;;;;;;1999.90;999.90;;;;;;;;;;4992270;28;20209;-70
2023/02/17 08:06:20;;;;;;;1999.90;999.90;;;;;;;;;;4987727;28;20252;-69
2023/02/17 08:15:12;;;;;;;1999.90;999.90;;;;;;;;;;4979219;28;20576;-69
2023/02/17 08:17:59;;;;;;;1999.90;999.90;;;;;;;;;;4981033;28;20263;-69
2023/02/17 08:20:44;;;;;;;1999.90;999.90;;;;;;;;;;4984922;28;20208;-68
2023/02/17 08:23:31;;;;;;;1999.90;999.90;;;;;;;;;;4987729;28;20408;-70
2023/02/17 08:26:16;;;;;;;1999.90;999.90;;;;;;;;;;4990870;28;20212;-69
2023/02/17 08:29:01;;;;;;;1999.90;999.90;;;;;;;;;;4991909;28;20210;-70
2023/02/17 08:31:46;;;;;;;1999.90;999.90;;;;;;;;;;4990253;28;20733;-69
2023/02/17 08:34:32;;;;;;;1999.90;999.90;;;;;;;;;;5004797;28;20746;-70
2023/02/17 08:37:17;;;;;;;1999.90;999.90;;;;;;;;;;4992053;28;20772;-69
2023/02/17 08:40:04;;;;;;;1999.90;999.90;;;;;;;;;;5008515;28;20311;-68
2023/02/17 08:42:49;;;;;;;1999.90;999.90;;;;;;;;;;5005531;28;20365;-69
2023/02/17 08:45:35;;;;;;;1999.90;999.90;;;;;;;;;;4997470;28;20227;-69
2023/02/17 08:48:20;;;;;;;1999.90;999.90;;;;;;;;;;5003239;28;20263;-71
2023/02/17 08:51:05;;;;;;;1999.90;999.90;;;;;;;;;;5001551;28;20219;-69
2023/02/17 08:53:51;;;;;;;1999.90;999.90;;;;;;;;;;5001087;28;20710;-69
2023/02/17 08:56:38;;;;;;;1999.90;999.90;;;;;;;;;;4994043;28;20216;-67
2023/02/17 08:59:23;;;;;;;1999.90;999.90;;;;;;;;;;4994022;28;20340;-68
2023/02/17 09:02:08;;;;;;;1999.90;999.90;;;;;;;;;;4997130;28;20324;-68
2023/02/17 09:04:53;;;;;;;1999.90;999.90;;;;;;;;;;5006811;28;20240;-71
2023/02/17 09:07:38;;;;;;;1999.90;999.90;;;;;;;;;;5004965;28;20798;-69
2023/02/17 09:10:23;;;;;;;1999.90;999.90;;;;;;;;;;5004827;28;20245;-71
2023/02/17 09:13:09;;;;;;;1999.90;999.90;;;;;;;;;;4996419;28;20370;-69
2023/02/17 09:15:54;;;;;;;1999.90;999.90;;;;;;;;;;5008100;28;20203;-69
2023/02/17 09:18:39;;;;;;;1999.90;999.90;;;;;;;;;;4997935;28;20340;-70
2023/02/17 09:21:24;;;;;;;1999.90;999.90;;;;;;;;;;5001552;28;20233;-69
2023/02/17 09:24:09;;;;;;;1999.90;999.90;;;;;;;;;;4993464;28;20210;-69
2023/02/17 09:26:54;;;;;;;1999.90;999.90;;;;;;;;;;4997540;28;20257;-70
2023/02/17 09:29:40;;;;;;;1999.90;999.90;;;;;;;;;;5008616;28;20215;-69
2023/02/17 09:32:25;;;;;;;1999.90;999.90;;;;;;;;;;5003730;28;20291;-70
2023/02/17 09:35:11;;;;;;;1999.90;999.90;;;;;;;;;;4993053;28;20241;-70
2023/02/17 09:37:57;;;;;;;1999.90;999.90;;;;;;;;;;5003447;28;20203;-70
2023/02/17 09:40:45;;;;;;;1999.90;999.90;;;;;;;;;;4992706;28;20572;-70
2023/02/17 09:43:32;;;;;;;1999.90;999.90;;;;;;;;;;5000545;28;20257;-71
2023/02/17 09:46:20;;;;;;;1999.90;999.90;;;;;;;;;;4996480;28;20616;-70
2023/02/17 09:49:08;;;;;;;1999.90;999.90;;;;;;;;;;4990203;28;20749;-70
2023/02/17 09:51:54;;;;;;;1999.90;999.90;;;;;;;;;;4995769;28;20599;-71
2023/02/17 09:54:43;;;;;;;1999.90;999.90;;;;;;;;;;4993790;28;20201;-69
2023/02/17 09:57:30;;;;;;;1999.90;999.90;;;;;;;;;;5001925;28;20209;-69
2023/02/17 10:00:17;;;;;;;1999.90;999.90;;;;;;;;;;4997144;28;20277;-71
2023/02/17 10:03:06;;;;;;;1999.90;999.90;;;;;;;;;;4996122;28;20753;-72
2023/02/17 10:05:53;;;;;;;1999.90;999.90;;;;;;;;;;4987343;28;20224;-71
2023/02/17 10:08:42;;;;;;;1999.90;999.90;;;;;;;;;;4997701;28;20494;-71
2023/02/17 10:11:30;;;;;;;1999.90;999.90;;;;;;;;;;4991774;28;20306;-70
2023/02/17 10:14:17;;;;;;;1999.90;999.90;;;;;;;;;;4987843;28;20292;-71
2023/02/17 10:17:04;;;;;;;1999.90;999.90;;;;;;;;;;4987120;28;20209;-71
2023/02/17 10:19:53;;;;;;;1999.90;999.90;;;;;;;;;;4987301;28;20285;-71
2023/02/17 10:22:39;;;;;;;1999.90;999.90;;;;;;;;;;4983052;28;20247;-71
2023/02/17 10:25:31;;;;;;;1999.90;999.90;;;;;;;;;;4980685;28;20376;-70
2023/02/17 10:28:18;;;;;;;1999.90;999.90;;;;;;;;;;4987225;28;20689;-71
2023/02/17 10:31:04;;;;;;;1999.90;999.90;;;;;;;;;;4989971;28;20705;-70
2023/02/17 10:33:58;;;;;;;1999.90;999.90;;;;;;;;;;4994795;28;20215;-71
2023/02/17 10:36:50;;;;;;;1999.90;999.90;;;;;;;;;;4992511;28;20209;-71
2023/02/17 10:39:46;;;;;;;1999.90;999.90;;;;;;;;;;4999311;28;20579;-70
2023/02/17 10:42:34;;;;;;;1999.90;999.90;;;;;;;;;;5006062;28;20249;-70
2023/02/17 10:45:24;;;;;;;1999.90;999.90;;;;;;;;;;4996328;28;20282;-70
2023/02/17 10:48:11;;;;;;;1999.90;999.90;;;;;;;;;;5007250;28;20601;-69
2023/02/17 10:50:58;;;;;;;1999.90;999.90;;;;;;;;;;5001279;28;20209;-70
2023/02/17 10:53:47;;;;;;;1999.90;999.90;;;;;;;;;;5000081;28;20212;-72
2023/02/17 10:56:34;;;;;;;1999.90;999.90;;;;;;;;;;4991933;28;20216;-71
2023/02/17 10:59:21;;;;;;;1999.90;999.90;;;;;;;;;;4991308;28;20371;-70
2023/02/17 11:02:14;;;;;;;1999.90;999.90;;;;;;;;;;5000202;28;20604;-70
2023/02/17 11:04:59;;;;;;;1999.90;999.90;;;;;;;;;;4991525;28;20278;-70
2023/02/17 11:07:44;;;;;;;1999.90;999.90;;;;;;;;;;4992512;28;20744;-70
2023/02/17 11:10:32;;;;;;;1999.90;999.90;;;;;;;;;;4994256;28;20745;-71
2023/02/17 11:13:28;;;;;;;1999.90;999.90;;;;;;;;;;4996963;28;20710;-70
2023/02/17 11:16:21;;;;;;;1999.90;999.90;;;;;;;;;;5008948;28;20335;-71
2023/02/17 11:19:07;;;;;;;1999.90;999.90;;;;;;;;;;4996125;28;20704;-71
2023/02/17 11:21:54;;;;;;;1999.90;999.90;;;;;;;;;;4995496;28;20245;-70
2023/02/17 11:24:39;;;;;;;1999.90;999.90;;;;;;;;;;4994453;28;20259;-70
2023/02/17 11:27:26;;;;;;;1999.90;999.90;;;;;;;;;;4987998;28;20339;-71
2023/02/17 11:30:17;;;;;;;1999.90;999.90;;;;;;;;;;5003898;28;20221;-71
2023/02/17 11:33:12;;;;;;;1999.90;999.90;;;;;;;;;;4997961;28;20237;-72
2023/02/17 11:35:57;;;;;;;1999.90;999.90;;;;;;;;;;4991135;28;20218;-71
2023/02/17 11:38:44;;;;;;;1999.90;999.90;;;;;;;;;;4991338;28;20212;-70
2023/02/17 11:41:38;;;;;;;1999.90;999.90;;;;;;;;;;4989612;28;20285;-72
2023/02/17 11:44:25;;;;;;;1999.90;999.90;;;;;;;;;;4993496;28;20262;-72
2023/02/17 11:47:15;;;;;;;1999.90;999.90;;;;;;;;;;4984485;28;20220;-72
2023/02/17 11:50:05;;;;;;;1999.90;999.90;;;;;;;;;;4991109;28;20786;-72
2023/02/17 11:52:59;;;;;;;1999.90;999.90;;;;;;;;;;4986714;28;20234;-71
2023/02/17 11:55:50;;;;;;;1999.90;999.90;;;;;;;;;;4980893;28;20203;-71
2023/02/17 11:58:48;;;;;;;1999.90;999.90;;;;;;;;;;4987221;28;20221;-72
2023/02/17 12:01:46;;;;;;;1999.90;999.90;;;;;;;;;;4981830;28;20231;-71
2023/02/17 12:04:32;;;;;;;1999.90;999.90;;;;;;;;;;4987674;28;20596;-72
2023/02/17 12:07:29;;;;;;;1999.90;999.90;;;;;;;;;;4989135;28;20212;-72
2023/02/17 12:10:19;;;;;;;1999.90;999.90;;;;;;;;;;4986788;28;20204;-71
2023/02/17 12:13:14;;;;;;;1999.90;999.90;;;;;;;;;;4994717;28;20722;-71
2023/02/17 12:16:08;;;;;;;1999.90;999.90;;;;;;;;;;4991820;28;20304;-72
2023/02/17 12:19:00;;;;;;;1999.90;999.90;;;;;;;;;;4991325;28;20207;-71
2023/02/17 12:21:50;;;;;;;1999.90;999.90;;;;;;;;;;4998462;28;20255;-70
2023/02/17 12:24:43;;;;;;;1999.90;999.90;;;;;;;;;;4987416;28;20208;-72
2023/02/17 12:27:33;;;;;;;1999.90;999.90;;;;;;;;;;4988024;28;20233;-71
2023/02/17 12:30:26;;;;;;;1999.90;999.90;;;;;;;;;;4992336;28;20797;-70
2023/02/17 12:33:31;;;;;;;1999.90;999.90;;;;;;;;;;4996643;28;20228;-69
2023/02/17 12:36:18;;;;;;;1999.90;999.90;;;;;;;;;;5008832;28;20268;-71
2023/02/17 12:39:10;;;;;;;1999.90;999.90;;;;;;;;;;4988993;28;20225;-71
2023/02/17 12:41:57;;;;;;;1999.90;999.90;;;;;;;;;;4997525;28;20274;-71
2023/02/17 12:44:44;;;;;;;1999.90;999.90;;;;;;;;;;4984931;28;20584;-71
2023/02/17 12:47:30;;;;;;;1999.90;999.90;;;;;;;;;;4993233;28;20341;-71
2023/02/17 12:50:19;;;;;;;1999.90;999.90;;;;;;;;;;4984154;28;20359;-71
2023/02/17 12:53:08;;;;;;;1999.90;999.90;;;;;;;;;;4983121;28;20594;-72
2023/02/17 12:55:54;;;;;;;1999.90;999.90;;;;;;;;;;4993504;28;20199;-72
2023/02/17 12:58:40;;;;;;;1999.90;999.90;;;;;;;;;;4995187;28;20415;-71
2023/02/17 13:01:25;;;;;;;1999.90;999.90;;;;;;;;;;4994901;28;20625;-72
2023/02/17 13:04:14;;;;;;;1999.90;999.90;;;;;;;;;;4995008;28;20280;-70
2023/02/17 13:07:06;;;;;;;1999.90;999.90;;;;;;;;;;4994609;28;20216;-72
2023/02/17 13:09:54;;;;;;;1999.90;999.90;;;;;;;;;;4993648;28;20402;-71
2023/02/17 13:12:41;;;;;;;1999.90;999.90;;;;;;;;;;4995224;28;20356;-72
2023/02/17 13:15:29;;;;;;;1999.90;999.90;;;;;;;;;;4989705;28;20207;-71
2023/02/17 13:18:26;;;;;;;1999.90;999.90;;;;;;;;;;4993564;28;20590;-70
2023/02/17 13:21:16;;;;;;;1999.90;999.90;;;;;;;;;;4992067;28;20744;-70
2023/02/17 13:24:02;;;;;;;1999.90;999.90;;;;;;;;;;5002254;28;20210;-71
2023/02/17 13:26:48;;;;;;;1999.90;999.90;;;;;;;;;;4999727;28;20262;-73
2023/02/17 13:29:34;;;;;;;1999.90;999.90;;;;;;;;;;4997946;28;20290;-70
2023/02/17 13:32:27;;;;;;;1999.90;999.90;;;;;;;;;;4999495;28;20244;-71
2023/02/17 13:35:29;;;;;;;1999.90;999.90;;;;;;;;;;4990677;28;20413;-71
2023/02/17 13:38:25;;;;;;;1999.90;999.90;;;;;;;;;;4990792;28;20208;-70
2023/02/17 13:41:13;;;;;;;1999.90;999.90;;;;;;;;;;4989498;28;20573;-70
2023/02/17 13:44:05;;;;;;;1999.90;999.90;;;;;;;;;;4994297;28;20204;-71
2023/02/17 13:46:51;;;;;;;1999.90;999.90;;;;;;;;;;5001817;28;20775;-70
2023/02/17 13:49:36;;;;;;;1999.90;999.90;;;;;;;;;;4998008;28;20276;-70
2023/02/17 13:52:23;;;;;;;1999.90;999.90;;;;;;;;;;5005136;28;20234;-72
2023/02/17 13:55:17;;;;;;;1999.90;999.90;;;;;;;;;;4990010;28;20315;-72
2023/02/17 13:58:02;;;;;;;1999.90;999.90;;;;;;;;;;4994597;28;20208;-72
2023/02/17 14:00:49;;;;;;;1999.90;999.90;;;;;;;;;;5000304;28;20221;-72
2023/02/17 14:03:35;;;;;;;1999.90;999.90;;;;;;;;;;4992922;28;20230;-72
2023/02/17 14:06:23;;;;;;;1999.90;999.90;;;;;;;;;;5002141;28;20329;-72
2023/02/17 14:09:12;;;;;;;1999.90;999.90;;;;;;;;;;5004126;28;20346;-71
2023/02/17 14:11:58;;;;;;;1999.90;999.90;;;;;;;;;;4996577;28;20256;-71
2023/02/17 14:14:43;;;;;;;1999.90;999.90;;;;;;;;;;4989939;28;20309;-70
2023/02/17 14:17:31;;;;;;;1999.90;999.90;;;;;;;;;;5003081;28;20292;-71
2023/02/17 14:20:29;;;;;;;1999.90;999.90;;;;;;;;;;4990945;28;20219;-71
2023/02/17 14:23:14;;;;;;;1999.90;999.90;;;;;;;;;;4985959;28;20257;-70
2023/02/17 14:26:08;;;;;;;1999.90;999.90;;;;;;;;;;4998608;28;20696;-70
2023/02/17 14:28:54;;;;;;;1999.90;999.90;;;;;;;;;;4989033;28;20438;-71
2023/02/17 14:31:40;;;;;;;1999.90;999.90;;;;;;;;;;4998447;28;20231;-71
2023/02/17 14:34:29;;;;;;;1999.90;999.90;;;;;;;;;;4997110;28;20204;-71
2023/02/17 14:37:18;;;;;;;1999.90;999.90;;;;;;;;;;5001093;28;20300;-71
2023/02/17 14:40:04;;;;;;;1999.90;999.90;;;;;;;;;;4990237;28;20275;-71
2023/02/17 14:42:49;;;;;;;1999.90;999.90;;;;;;;;;;4992897;28;20833;-70
2023/02/17 14:45:34;;;;;;;1999.90;999.90;;;;;;;;;;4997587;28;20216;-69
2023/02/17 14:48:19;;;;;;;1999.90;999.90;;;;;;;;;;5004026;28;20229;-70
2023/02/17 14:51:12;;;;;;;1999.90;999.90;;;;;;;;;;4989711;28;20591;-70
2023/02/17 14:53:57;;;;;;;1999.90;999.90;;;;;;;;;;4998163;28;20215;-70
2023/02/17 14:56:44;;;;;;;1999.90;999.90;;;;;;;;;;4990827;28;20292;-70
2023/02/17 14:59:29;;;;;;;1999.90;999.90;;;;;;;;;;4985628;28;20212;-70
2023/02/17 15:02:15;;;;;;;1999.90;999.90;;;;;;;;;;4985814;28;20347;-71
2023/02/17 15:05:00;;;;;;;1999.90;999.90;;;;;;;;;;4991264;28;20262;-71
2023/02/17 15:07:47;;;;;;;1999.90;999.90;;;;;;;;;;4986948;28;20238;-70
2023/02/17 15:10:32;;;;;;;1999.90;999.90;;;;;;;;;;4987789;28;20273;-71
2023/02/17 15:13:18;;;;;;;1999.90;999.90;;;;;;;;;;4986046;28;20240;-71
2023/02/17 15:16:05;;;;;;;1999.90;999.90;;;;;;;;;;4990258;28;20258;-71
2023/02/17 15:18:50;;;;;;;1999.90;999.90;;;;;;;;;;4984964;28;20576;-72
2023/02/17 15:21:36;;;;;;;1999.90;999.90;;;;;;;;;;4992537;28;20299;-73
2023/02/17 15:24:24;;;;;;;1999.90;999.90;;;;;;;;;;4982984;28;20485;-72
2023/02/17 15:27:12;;;;;;;1999.90;999.90;;;;;;;;;;4987972;28;20321;-73
2023/02/17 15:29:57;;;;;;;1999.90;999.90;;;;;;;;;;4990126;28;20220;-72
2023/02/17 15:32:42;;;;;;;1999.90;999.90;;;;;;;;;;4983929;28;20227;-73
2023/02/17 15:35:27;;;;;;;1999.90;999.90;;;;;;;;;;4985022;28;20226;-72
2023/02/17 15:38:13;;;;;;;1999.90;999.90;;;;;;;;;;4987888;28;20214;-71
2023/02/17 15:41:00;;;;;;;1999.90;999.90;;;;;;;;;;4992540;28;20213;-72
2023/02/17 15:43:46;;;;;;;1999.90;999.90;;;;;;;;;;4990289;28;20214;-72
2023/02/17 15:46:32;;;;;;;1999.90;999.90;;;;;;;;;;4989076;28;20610;-69
2023/02/17 15:49:17;;;;;;;1999.90;999.90;;;;;;;;;;4988219;28;20217;-73
2023/02/17 15:52:02;;;;;;;1999.90;999.90;;;;;;;;;;4991935;28;20231;-72
2023/02/17 15:54:47;;;;;;;1999.90;999.90;;;;;;;;;;4989040;28;20354;-72
2023/02/17 15:57:34;;;;;;;1999.90;999.90;;;;;;;;;;4988971;28;20200;-72
2023/02/17 16:00:21;;;;;;;1999.90;999.90;;;;;;;;;;4990785;28;20710;-72
2023/02/17 16:03:06;;;;;;;1999.90;999.90;;;;;;;;;;4990952;28;20226;-72
2023/02/17 16:05:52;;;;;;;1999.90;999.90;;;;;;;;;;4995854;28;20206;-72
2023/02/17 16:08:37;;;;;;;1999.90;999.90;;;;;;;;;;4992257;28;20207;-72
2023/02/17 16:11:22;;;;;;;1999.90;999.90;;;;;;;;;;4988675;28;20207;-68
2023/02/17 16:14:11;;;;;;;1999.90;999.90;;;;;;;;;;4992047;28;20213;-72
2023/02/17 16:16:56;;;;;;;1999.90;999.90;;;;;;;;;;5001177;28;20213;-72
2023/02/17 16:19:41;;;;;;;1999.90;999.90;;;;;;;;;;4998791;28;20206;-72
2023/02/17 16:22:28;;;;;;;1999.90;999.90;;;;;;;;;;4994130;28;20359;-72
2023/02/17 16:25:14;;;;;;;1999.90;999.90;;;;;;;;;;4989561;28;20341;-73
2023/02/17 16:27:59;;;;;;;1999.90;999.90;;;;;;;;;;5006168;28;20232;-71
2023/02/17 16:30:48;;;;;;;1999.90;999.90;;;;;;;;;;5004070;28;20295;-72
2023/02/17 16:33:33;;;;;;;1999.90;999.90;;;;;;;;;;5002754;28;20214;-71
2023/02/17 16:36:19;;;;;;;1999.90;999.90;;;;;;;;;;4996435;28;20335;-72
2023/02/17 16:39:11;;;;;;;1999.90;999.90;;;;;;;;;;4996580;28;20257;-72
2023/02/17 16:41:56;;;;;;;1999.90;999.90;;;;;;;;;;4996661;28;20247;-71
2023/02/17 16:44:41;;;;;;;1999.90;999.90;;;;;;;;;;4994262;28;20220;-71
2023/02/17 16:47:28;;;;;;;1999.90;999.90;;;;;;;;;;5007605;28;20217;-71
2023/02/17 16:50:17;;;;;;;1999.90;999.90;;;;;;;;;;5012725;28;20206;-71
2023/02/17 16:53:03;;;;;;;1999.90;999.90;;;;;;;;;;5011001;28;20297;-71
2023/02/17 16:55:48;;;;;;;1999.90;999.90;;;;;;;;;;5009270;28;20231;-71
2023/02/17 16:58:33;;;;;;;1999.90;999.90;;;;;;;;;;5000824;28;20209;-71
2023/02/17 17:01:18;;;;;;;1999.90;999.90;;;;;;;;;;4993794;28;20708;-73
2023/02/17 17:04:05;;;;;;;1999.90;999.90;;;;;;;;;;5000328;28;20213;-71
2023/02/17 17:06:51;;;;;;;1999.90;999.90;;;;;;;;;;5003743;28;20569;-71
2023/02/17 17:09:36;;;;;;;1999.90;999.90;;;;;;;;;;5013221;28;21032;-72
2023/02/17 17:12:21;;;;;;;1999.90;999.90;;;;;;;;;;4997949;28;20232;-71
2023/02/17 17:15:06;;;;;;;1999.90;999.90;;;;;;;;;;4995257;28;20211;-72
2023/02/17 17:17:53;;;;;;;1999.90;999.90;;;;;;;;;;5008897;28;20281;-69
2023/02/17 17:20:39;;;;;;;1999.90;999.90;;;;;;;;;;5014115;28;20758;-72
2023/02/17 17:23:24;;;;;;;1999.90;999.90;;;;;;;;;;4996651;28;20297;-73
2023/02/17 17:26:15;;;;;;;1999.90;999.90;;;;;;;;;;4997684;28;20203;-72
2023/02/17 17:29:00;;;;;;;1999.90;999.90;;;;;;;;;;4993913;28;20339;-72
2023/02/17 17:31:45;;;;;;;1999.90;999.90;;;;;;;;;;5004804;28;20306;-73
2023/02/17 17:34:31;;;;;;;1999.90;999.90;;;;;;;;;;5008243;28;20211;-72
2023/02/17 17:37:17;;;;;;;1999.90;999.90;;;;;;;;;;5003028;28;20202;-71
2023/02/17 17:40:02;;;;;;;1999.90;999.90;;;;;;;;;;5011233;28;20211;-71
2023/02/17 17:42:47;;;;;;;1999.90;999.90;;;;;;;;;;4993324;28;20245;-71
2023/02/17 17:45:32;;;;;;;1999.90;999.90;;;;;;;;;;5000464;28;20211;-71
2023/02/17 17:48:18;;;;;;;1999.90;999.90;;;;;;;;;;5010611;28;20224;-71
2023/02/17 17:51:03;;;;;;;1999.90;999.90;;;;;;;;;;4996308;28;20215;-73
2023/02/17 17:53:49;;;;;;;1999.90;999.90;;;;;;;;;;5010517;28;20205;-70
2023/02/17 17:56:35;;;;;;;1999.90;999.90;;;;;;;;;;5007334;28;20231;-69
2023/02/17 17:59:20;;;;;;;1999.90;999.90;;;;;;;;;;5010546;28;20244;-71